Time;durP1;ratioP1;P1;durP2;ratioP2;P2;SDS_P1;SDS_P2;PMS_P1;PMS_P2;Temp;Humidity;BMP_temperature;BMP_pressure;BME280_temperature;BME280_humidity;BME280_pressure;Samples;Min_cycle;Max_cycle;Signal;HPM_P1;HPM_P2
2024/01/05 00:02:05;;;;;;;1.70;0.70;;;7.10;1.00;;;;;;5116329;28;20514;-70
2024/01/05 00:04:34;;;;;;;1.27;0.63;;;7.00;1.00;;;;;;5114894;28;20420;-72
2024/01/05 00:07:04;;;;;;;2.65;0.60;;;7.00;1.00;;;;;;5114257;28;20839;-70
2024/01/05 00:09:31;;;;;;;2.30;0.60;;;7.00;1.00;;;;;;5095662;28;20499;-70
2024/01/05 00:12:00;;;;;;;3.25;0.70;;;7.00;1.00;;;;;;5096215;28;20586;-70
2024/01/05 00:14:27;;;;;;;2.72;0.60;;;7.00;1.00;;;;;;5097911;28;20422;-70
2024/01/05 00:16:58;;;;;;;1.35;0.50;;;6.90;1.00;;;;;;5096138;28;20441;-70
2024/01/05 00:19:25;;;;;;;1.43;0.57;;;6.80;1.00;;;;;;5096417;28;20818;-70
2024/01/05 00:21:54;;;;;;;1.02;0.50;;;6.80;1.00;;;;;;5095283;28;20422;-70
2024/01/05 00:24:21;;;;;;;1.58;0.60;;;6.90;1.00;;;;;;5094634;28;20441;-70
2024/01/05 00:26:48;;;;;;;2.90;0.50;;;6.90;1.00;;;;;;5093812;28;20461;-71
2024/01/05 00:29:15;;;;;;;1.45;0.50;;;6.90;1.00;;;;;;5094795;28;20748;-71
2024/01/05 00:31:42;;;;;;;1.00;0.50;;;6.90;1.00;;;;;;5118903;27;20819;-70
2024/01/05 00:34:09;;;;;;;1.70;0.50;;;6.90;1.00;;;;;;5103805;28;20771;-71
2024/01/05 00:36:36;;;;;;;2.90;0.50;;;7.00;1.00;;;;;;5123467;27;20438;-71
2024/01/05 00:39:05;;;;;;;2.00;0.50;;;6.90;1.00;;;;;;5119430;27;20443;-70
2024/01/05 00:41:32;;;;;;;0.68;0.40;;;6.90;1.00;;;;;;5121638;27;20421;-71
2024/01/05 00:43:59;;;;;;;3.42;0.50;;;6.90;1.00;;;;;;5124063;27;20840;-71
2024/01/05 00:46:26;;;;;;;2.00;0.50;;;6.90;1.00;;;;;;5127007;27;20417;-70
2024/01/05 00:48:57;;;;;;;0.88;0.50;;;7.00;1.00;;;;;;5121336;27;20528;-70
2024/01/05 00:51:24;;;;;;;2.90;0.60;;;6.90;1.00;;;;;;5119445;27;20506;-71
2024/01/05 00:53:51;;;;;;;1.60;0.50;;;6.80;1.00;;;;;;5125798;27;20461;-71
2024/01/05 00:56:21;;;;;;;1.20;0.50;;;6.90;1.00;;;;;;5122390;27;20878;-70
2024/01/05 00:58:48;;;;;;;0.90;0.40;;;7.00;1.00;;;;;;5126065;27;20726;-71
2024/01/05 01:01:16;;;;;;;1.70;0.50;;;6.90;1.00;;;;;;5127274;27;20432;-70
2024/01/05 01:03:43;;;;;;;1.30;0.50;;;7.00;1.00;;;;;;5114368;27;20440;-71
2024/01/05 01:06:10;;;;;;;1.80;0.50;;;6.90;1.00;;;;;;5124372;27;20442;-70
2024/01/05 01:08:37;;;;;;;0.93;0.40;;;7.00;1.00;;;;;;5118999;27;20420;-70
2024/01/05 01:11:04;;;;;;;2.33;0.40;;;6.90;1.00;;;;;;5119330;27;20531;-72
2024/01/05 01:13:33;;;;;;;1.58;0.40;;;7.10;1.00;;;;;;5124352;27;20511;-70
2024/01/05 01:16:00;;;;;;;1.40;0.37;;;7.00;1.00;;;;;;5126263;27;20422;-70
2024/01/05 01:18:28;;;;;;;0.70;0.40;;;7.00;1.00;;;;;;5125388;27;20458;-70
2024/01/05 01:20:55;;;;;;;2.30;0.40;;;6.90;1.00;;;;;;5123953;27;20861;-73
2024/01/05 01:23:22;;;;;;;1.00;0.50;;;6.90;1.00;;;;;;5122252;27;20431;-70
2024/01/05 01:25:52;;;;;;;2.42;0.40;;;6.90;1.00;;;;;;5125882;27;20443;-71
2024/01/05 01:28:19;;;;;;;2.10;0.40;;;6.80;1.00;;;;;;5125507;27;20431;-71
2024/01/05 01:30:47;;;;;;;0.93;0.40;;;6.70;1.00;;;;;;5128106;27;20892;-70
2024/01/05 01:33:14;;;;;;;3.33;0.35;;;6.70;1.00;;;;;;5128877;27;20495;-71
2024/01/05 01:35:41;;;;;;;2.20;0.40;;;6.60;1.00;;;;;;5122864;27;20434;-71
2024/01/05 01:38:08;;;;;;;3.10;0.40;;;6.60;1.00;;;;;;5124120;27;20671;-70
2024/01/05 01:40:35;;;;;;;1.40;0.40;;;6.70;1.00;;;;;;5125812;27;20474;-71
2024/01/05 01:43:03;;;;;;;0.90;0.40;;;6.80;1.00;;;;;;5122363;27;20424;-71
2024/01/05 01:45:31;;;;;;;0.80;0.40;;;6.80;1.00;;;;;;5125712;27;20513;-71
2024/01/05 01:48:03;;;;;;;0.80;0.40;;;6.90;1.00;;;;;;5126658;27;20419;-70
2024/01/05 01:50:30;;;;;;;1.38;0.30;;;6.80;1.00;;;;;;5125235;27;20431;-70
2024/01/05 01:52:57;;;;;;;1.00;0.30;;;6.90;1.00;;;;;;5123952;27;20834;-71
2024/01/05 01:55:24;;;;;;;1.08;0.40;;;6.90;1.00;;;;;;5121104;27;20412;-71
2024/01/05 01:57:51;;;;;;;2.72;0.35;;;6.90;1.00;;;;;;5125729;27;20419;-71
2024/01/05 02:00:19;;;;;;;1.75;0.40;;;7.00;1.00;;;;;;5126380;27;20415;-72
2024/01/05 02:02:46;;;;;;;0.80;0.40;;;7.00;1.00;;;;;;5124502;27;20431;-72
2024/01/05 02:05:15;;;;;;;1.90;0.40;;;7.00;1.00;;;;;;5124372;27;20408;-71
2024/01/05 02:07:43;;;;;;;1.20;0.40;;;7.00;1.00;;;;;;5126132;27;20800;-71
2024/01/05 02:10:10;;;;;;;2.40;0.30;;;7.10;99.90;;;;;;5124273;27;20521;-70
2024/01/05 02:12:37;;;;;;;0.65;0.30;;;7.20;99.90;;;;;;5123272;27;20418;-71
2024/01/05 02:15:05;;;;;;;0.70;0.30;;;7.10;99.90;;;;;;5121778;27;20419;-71
2024/01/05 02:17:34;;;;;;;0.70;0.30;;;7.20;99.90;;;;;;5124260;27;20414;-71
2024/01/05 02:20:01;;;;;;;1.20;0.40;;;7.20;1.00;;;;;;5124687;27;20442;-71
2024/01/05 02:22:31;;;;;;;0.98;0.40;;;7.10;1.00;;;;;;5124567;27;20806;-71
2024/01/05 02:24:59;;;;;;;0.57;0.38;;;7.10;99.90;;;;;;5123542;27;20692;-71
2024/01/05 02:27:27;;;;;;;1.50;0.30;;;7.10;1.00;;;;;;5121254;28;20435;-70
2024/01/05 02:29:54;;;;;;;1.40;0.40;;;7.00;99.90;;;;;;5120067;27;20453;-71
2024/01/05 02:32:21;;;;;;;3.00;0.40;;;7.00;1.00;;;;;;5124987;27;20693;-70
2024/01/05 02:34:48;;;;;;;1.67;0.40;;;7.00;99.90;;;;;;5124909;27;20414;-70
2024/01/05 02:37:15;;;;;;;0.90;0.40;;;6.90;1.00;;;;;;5118334;28;20420;-71
2024/01/05 02:39:42;;;;;;;0.82;0.40;;;6.90;1.00;;;;;;5114642;28;20440;-70
2024/01/05 02:42:11;;;;;;;2.20;0.40;;;7.00;1.00;;;;;;5114546;28;20488;-70
2024/01/05 02:44:38;;;;;;;1.50;0.30;;;7.10;99.90;;;;;;5116850;28;20433;-70
2024/01/05 02:47:05;;;;;;;1.85;0.40;;;7.00;99.90;;;;;;5121915;28;20474;-71
2024/01/05 02:49:32;;;;;;;0.68;0.38;;;6.90;1.00;;;;;;5123299;28;20407;-71
2024/01/05 02:51:59;;;;;;;1.60;0.50;;;6.80;1.00;;;;;;5122105;27;20442;-72
2024/01/05 02:54:26;;;;;;;1.00;0.40;;;6.80;1.00;;;;;;5123186;28;20418;-71
2024/01/05 02:56:53;;;;;;;0.60;0.30;;;6.80;1.00;;;;;;5123186;28;20423;-72
2024/01/05 02:59:21;;;;;;;1.35;0.40;;;6.90;1.00;;;;;;5122200;27;20432;-71
2024/01/05 03:01:50;;;;;;;2.10;0.40;;;6.90;1.00;;;;;;5123294;27;20707;-72
2024/01/05 03:04:17;;;;;;;1.73;0.32;;;6.90;1.00;;;;;;5122666;28;20762;-72
2024/01/05 03:06:44;;;;;;;1.60;0.40;;;6.90;1.00;;;;;;5122594;27;20509;-71
2024/01/05 03:09:11;;;;;;;1.20;0.30;;;6.90;1.00;;;;;;5123667;27;20422;-71
2024/01/05 03:11:38;;;;;;;0.70;0.30;;;6.90;1.00;;;;;;5122563;27;20703;-71
2024/01/05 03:14:05;;;;;;;1.90;0.30;;;6.90;1.00;;;;;;5121583;28;20406;-71
2024/01/05 03:16:34;;;;;;;1.00;0.30;;;7.00;1.00;;;;;;5123789;27;20961;-71
2024/01/05 03:19:01;;;;;;;0.60;0.30;;;6.90;99.90;;;;;;5123978;27;20459;-72
2024/01/05 03:21:28;;;;;;;2.25;0.40;;;6.90;1.00;;;;;;5123690;28;20422;-72
2024/01/05 03:23:55;;;;;;;0.80;0.40;;;6.90;1.00;;;;;;5119967;27;20424;-71
2024/01/05 03:26:22;;;;;;;0.80;0.30;;;6.90;1.00;;;;;;5122436;28;20423;-71
2024/01/05 03:28:49;;;;;;;1.27;0.40;;;6.90;1.00;;;;;;5123791;28;20413;-72
2024/01/05 03:31:16;;;;;;;0.50;0.30;;;6.90;99.90;;;;;;5120318;27;20454;-71
2024/01/05 03:33:45;;;;;;;1.20;0.30;;;6.90;99.90;;;;;;5123440;27;20513;-71
2024/01/05 03:36:12;;;;;;;2.08;0.40;;;6.80;1.00;;;;;;5125835;27;20521;-72
2024/01/05 03:38:39;;;;;;;1.15;0.30;;;6.90;99.90;;;;;;5128013;27;20815;-72
2024/01/05 03:41:07;;;;;;;0.93;0.20;;;6.90;99.90;;;;;;5128053;27;20503;-72
2024/01/05 03:43:34;;;;;;;0.50;0.20;;;6.90;99.90;;;;;;5126267;27;20444;-71
2024/01/05 03:46:01;;;;;;;1.58;0.30;;;7.00;99.90;;;;;;5128128;27;20430;-71
2024/01/05 03:48:28;;;;;;;0.60;0.30;;;7.00;99.90;;;;;;5138440;27;20410;-71
2024/01/05 03:50:56;;;;;;;0.60;0.30;;;7.10;1.00;;;;;;5138791;27;20795;-72
2024/01/05 03:53:23;;;;;;;0.50;0.20;;;7.10;99.90;;;;;;5137741;27;20869;-71
2024/01/05 03:55:50;;;;;;;0.80;0.30;;;7.20;99.90;;;;;;5137372;27;20425;-72
2024/01/05 03:58:17;;;;;;;0.68;0.20;;;7.30;99.90;;;;;;5137097;27;20430;-71
2024/01/05 04:00:44;;;;;;;2.00;0.30;;;7.40;99.90;;;;;;5137334;27;20791;-71
2024/01/05 04:03:11;;;;;;;0.70;0.30;;;7.40;99.90;;;;;;5137575;27;20449;-72
2024/01/05 04:05:38;;;;;;;0.90;0.20;;;7.50;1.00;;;;;;5124783;27;20814;-72
2024/01/05 04:08:07;;;;;;;1.70;0.20;;;7.50;1.00;;;;;;5115671;28;20598;-72
2024/01/05 04:10:34;;;;;;;1.40;0.20;;;7.50;1.00;;;;;;5114937;28;20408;-72
2024/01/05 04:13:02;;;;;;;1.00;0.20;;;7.60;1.00;;;;;;5116434;28;20858;-72
2024/01/05 04:15:29;;;;;;;1.03;0.30;;;7.70;99.90;;;;;;5115863;28;20465;-72
2024/01/05 04:17:56;;;;;;;0.65;0.20;;;7.70;1.00;;;;;;5115694;28;20411;-71
2024/01/05 04:20:23;;;;;;;1.70;0.28;;;7.80;99.90;;;;;;5116707;28;20522;-72
2024/01/05 04:22:50;;;;;;;0.70;0.30;;;7.90;99.90;;;;;;5116549;28;20420;-72
2024/01/05 04:25:18;;;;;;;0.60;0.20;;;8.00;99.90;;;;;;5116736;28;20527;-72
2024/01/05 04:27:46;;;;;;;1.27;0.20;;;8.10;99.90;;;;;;5116923;28;20440;-71
2024/01/05 04:30:13;;;;;;;0.52;0.20;;;8.20;1.00;;;;;;5117192;28;20420;-72
2024/01/05 04:32:41;;;;;;;0.40;0.20;;;8.10;1.00;;;;;;5113180;28;20422;-76
2024/01/05 04:35:08;;;;;;;0.50;0.20;;;8.20;1.00;;;;;;5104332;28;20477;-76
2024/01/05 04:37:35;;;;;;;0.80;0.20;;;8.20;99.90;;;;;;5116827;28;20694;-76
2024/01/05 04:40:06;;;;;;;0.40;0.17;;;8.20;99.90;;;;;;5114423;28;20848;-76
2024/01/05 04:42:35;;;;;;;0.73;0.30;;;8.10;99.90;;;;;;5115864;28;20516;-76
2024/01/05 04:45:02;;;;;;;0.43;0.20;;;8.10;99.90;;;;;;5115179;28;20420;-75
2024/01/05 04:47:31;;;;;;;0.50;0.30;;;8.20;1.00;;;;;;5114782;28;20489;-75
2024/01/05 04:49:58;;;;;;;0.70;0.20;;;8.20;99.90;;;;;;5100930;28;20487;-75
2024/01/05 04:52:26;;;;;;;1.00;0.20;;;8.30;1.00;;;;;;5114650;28;20481;-75
2024/01/05 04:54:53;;;;;;;0.50;0.20;;;8.30;99.90;;;;;;5116262;28;20431;-76
2024/01/05 04:57:20;;;;;;;1.60;0.20;;;8.30;1.00;;;;;;5116162;28;20771;-76
2024/01/05 04:59:48;;;;;;;0.30;0.20;;;8.20;99.90;;;;;;5116794;28;20432;-75
2024/01/05 05:02:15;;;;;;;0.70;0.20;;;8.20;1.00;;;;;;5116549;28;20435;-75
2024/01/05 05:04:42;;;;;;;0.40;0.20;;;8.30;99.90;;;;;;5116591;28;20694;-75
2024/01/05 05:07:09;;;;;;;0.50;0.20;;;8.30;99.90;;;;;;5115757;28;20423;-75
2024/01/05 05:09:36;;;;;;;0.70;0.20;;;8.30;99.90;;;;;;5116236;28;20523;-75
2024/01/05 05:12:04;;;;;;;1.10;0.20;;;8.30;99.90;;;;;;5117030;28;20820;-75
2024/01/05 05:14:31;;;;;;;0.70;0.30;;;8.30;1.00;;;;;;5116017;28;20677;-75
2024/01/05 05:17:00;;;;;;;0.50;0.20;;;8.20;99.90;;;;;;5115850;28;20428;-76
2024/01/05 05:19:27;;;;;;;0.80;0.20;;;8.10;99.90;;;;;;5116674;28;20420;-75
2024/01/05 05:21:54;;;;;;;0.80;0.20;;;8.10;99.90;;;;;;5116339;28;20832;-75
2024/01/05 05:24:21;;;;;;;0.87;0.20;;;8.10;1.00;;;;;;5116053;28;20420;-76
2024/01/05 05:26:48;;;;;;;1.07;0.20;;;8.10;99.90;;;;;;5115655;28;20422;-76
2024/01/05 05:29:15;;;;;;;0.88;0.30;;;8.20;99.90;;;;;;5114887;28;20428;-76
2024/01/05 05:31:42;;;;;;;0.55;0.20;;;8.20;99.90;;;;;;5113547;28;20423;-76
2024/01/05 05:34:11;;;;;;;0.40;0.20;;;8.20;99.90;;;;;;5097384;28;20476;-76
2024/01/05 05:36:38;;;;;;;0.50;0.20;;;8.20;99.90;;;;;;5112126;28;20438;-76
2024/01/05 05:39:05;;;;;;;0.50;0.20;;;8.10;99.90;;;;;;5112931;28;20810;-76
2024/01/05 05:41:32;;;;;;;0.40;0.20;;;8.10;99.90;;;;;;5112687;28;20519;-75
2024/01/05 05:43:59;;;;;;;2.10;0.20;;;8.10;99.90;;;;;;5113162;28;20478;-76
2024/01/05 05:46:26;;;;;;;0.70;0.20;;;8.10;99.90;;;;;;5113551;28;20420;-75
2024/01/05 05:48:53;;;;;;;0.82;0.20;;;8.00;99.90;;;;;;5115100;28;20428;-76
2024/01/05 05:51:22;;;;;;;0.70;0.20;;;8.00;99.90;;;;;;5114645;28;20432;-76
2024/01/05 05:53:49;;;;;;;1.10;0.20;;;8.00;1.00;;;;;;5114723;28;20439;-75
2024/01/05 05:56:16;;;;;;;0.50;0.20;;;8.00;1.00;;;;;;5114673;28;20420;-75
2024/01/05 05:58:43;;;;;;;0.77;0.20;;;7.90;1.00;;;;;;5115344;28;20662;-76
2024/01/05 06:01:12;;;;;;;1.10;0.30;;;7.90;1.00;;;;;;5115062;28;20510;-76
2024/01/05 06:03:40;;;;;;;0.60;0.30;;;7.90;1.00;;;;;;5114840;28;20451;-76
2024/01/05 06:06:16;;;;;;;1.50;0.30;;;8.00;99.90;;;;;;5115588;27;20428;-76
2024/01/05 06:08:45;;;;;;;0.80;0.30;;;8.10;99.90;;;;;;5114125;28;20428;-77
2024/01/05 06:11:15;;;;;;;0.60;0.20;;;8.00;1.00;;;;;;5114777;28;20404;-78
2024/01/05 06:13:43;;;;;;;1.17;0.20;;;8.00;30.30;;;;;;5114817;28;20439;-78
2024/01/05 06:16:10;;;;;;;1.00;0.20;;;8.00;1.00;;;;;;5113414;28;20448;-77
2024/01/05 06:18:37;;;;;;;0.80;0.20;;;8.00;1.00;;;;;;5113276;28;20431;-79
2024/01/05 06:21:05;;;;;;;1.00;0.20;;;8.00;1.00;;;;;;5113004;28;20434;-77
2024/01/05 06:23:32;;;;;;;2.10;0.20;;;8.00;1.00;;;;;;5113442;27;20530;-77
2024/01/05 06:26:01;;;;;;;0.40;0.20;;;8.10;1.00;;;;;;5112424;28;20416;-77
2024/01/05 06:28:28;;;;;;;1.10;0.20;;;8.00;1.00;;;;;;5112415;28;20438;-78
2024/01/05 06:30:55;;;;;;;0.60;0.22;;;8.00;1.00;;;;;;5112891;28;20408;-78
2024/01/05 06:33:23;;;;;;;2.50;0.30;;;7.90;1.00;;;;;;5103626;28;20417;-78
2024/01/05 06:35:50;;;;;;;0.30;0.20;;;8.00;1.00;;;;;;5106432;28;20782;-78
2024/01/05 06:38:17;;;;;;;0.55;0.20;;;7.90;1.00;;;;;;5113847;28;20428;-78
2024/01/05 06:40:44;;;;;;;0.50;0.20;;;7.90;1.00;;;;;;5111809;28;20813;-78
2024/01/05 06:43:12;;;;;;;1.23;0.20;;;7.90;1.00;;;;;;5114590;28;20954;-78
2024/01/05 06:45:39;;;;;;;1.17;0.30;;;7.90;1.00;;;;;;5114736;28;20419;-76
2024/01/05 06:48:08;;;;;;;0.77;0.38;;;7.90;1.00;;;;;;5119107;27;20799;-76
2024/01/05 06:50:35;;;;;;;0.50;0.20;;;7.90;1.00;;;;;;5135041;27;20803;-76
2024/01/05 06:53:04;;;;;;;0.60;0.30;;;7.90;1.00;;;;;;5114851;27;20435;-76
2024/01/05 06:55:33;;;;;;;0.50;0.20;;;7.90;1.00;;;;;;5112459;28;20709;-76
2024/01/05 06:58:01;;;;;;;1.47;0.27;;;7.80;1.00;;;;;;5114076;28;20523;-77
2024/01/05 07:00:30;;;;;;;0.68;0.20;;;7.70;1.00;;;;;;5114006;28;20829;-76
2024/01/05 07:02:57;;;;;;;0.40;0.20;;;7.70;99.90;;;;;;5109121;28;20771;-77
2024/01/05 07:05:24;;;;;;;0.50;0.30;;;7.60;1.00;;;;;;5111084;28;20420;-77
2024/01/05 07:07:52;;;;;;;0.50;0.20;;;7.70;1.00;;;;;;5110849;28;20415;-77
2024/01/05 07:10:23;;;;;;;0.52;0.20;;;7.60;1.00;;;;;;5115593;27;20428;-78
2024/01/05 07:12:50;;;;;;;0.40;0.20;;;7.60;1.00;;;;;;5104646;28;20753;-80
2024/01/05 07:15:18;;;;;;;0.50;0.20;;;7.70;1.00;;;;;;5117201;28;20424;-79
2024/01/05 07:17:47;;;;;;;0.70;0.20;;;7.70;1.00;;;;;;5118050;28;20431;-79
2024/01/05 07:20:15;;;;;;;0.60;0.20;;;7.70;1.00;;;;;;5118436;28;20466;-79
2024/01/05 07:22:43;;;;;;;0.70;0.20;;;7.70;99.90;;;;;;5106621;28;20545;-77
2024/01/05 07:25:11;;;;;;;0.50;0.30;;;7.70;99.90;;;;;;5102681;28;20421;-77
2024/01/05 07:27:38;;;;;;;0.90;0.20;;;7.70;99.90;;;;;;5118871;27;20453;-77
2024/01/05 07:30:06;;;;;;;0.60;0.30;;;7.60;1.00;;;;;;5108003;27;20735;-77
2024/01/05 07:32:34;;;;;;;0.70;0.30;;;7.50;99.90;;;;;;5115265;28;20424;-77
2024/01/05 07:35:06;;;;;;;1.60;0.30;;;7.40;1.00;;;;;;5108583;28;20417;-77
2024/01/05 07:37:33;;;;;;;1.33;0.20;;;7.30;99.90;;;;;;5112715;28;20431;-78
2024/01/05 07:40:04;;;;;;;0.70;0.30;;;7.30;1.00;;;;;;5124626;27;20462;-76
2024/01/05 07:42:32;;;;;;;0.60;0.30;;;7.30;37.10;;;;;;5126855;27;20486;-76
2024/01/05 07:45:00;;;;;;;1.30;0.20;;;7.30;99.90;;;;;;5139482;27;20418;-77
2024/01/05 07:47:27;;;;;;;1.60;0.28;;;7.40;1.00;;;;;;5119349;28;20447;-77
2024/01/05 07:49:55;;;;;;;0.60;0.30;;;7.40;99.90;;;;;;5115012;28;20841;-77
2024/01/05 07:52:24;;;;;;;0.60;0.28;;;7.50;99.90;;;;;;5114981;28;20438;-78
2024/01/05 07:54:51;;;;;;;0.60;0.30;;;7.50;90.10;;;;;;5116801;28;20428;-79
2024/01/05 07:57:19;;;;;;;0.50;0.30;;;7.60;1.00;;;;;;5117836;28;20519;-79
2024/01/05 07:59:45;;;;;;;0.50;0.30;;;7.70;1.00;;;;;;5111736;28;20429;-79
2024/01/05 08:02:12;;;;;;;1.00;0.30;;;7.80;99.90;;;;;;5108064;28;20416;-78
2024/01/05 08:04:40;;;;;;;0.73;0.30;;;7.90;7.50;;;;;;5121703;27;20416;-76
2024/01/05 08:07:08;;;;;;;1.20;0.30;;;7.90;1.00;;;;;;5117651;27;20424;-79
2024/01/05 08:09:43;;;;;;;0.90;0.20;;;8.00;1.00;;;;;;5129478;27;20420;-79
2024/01/05 08:12:13;;;;;;;0.57;0.30;;;8.00;1.00;;;;;;5115000;28;20552;-79
2024/01/05 08:14:43;;;;;;;0.80;0.20;;;8.10;1.00;;;;;;5110058;28;20879;-79
2024/01/05 08:17:10;;;;;;;1.00;0.30;;;8.10;99.90;;;;;;5111056;28;20464;-78
2024/01/05 08:19:37;;;;;;;0.60;0.30;;;8.10;99.90;;;;;;5103909;28;20422;-77
2024/01/05 08:22:07;;;;;;;0.90;0.20;;;8.10;27.10;;;;;;5111217;28;20420;-77
2024/01/05 08:24:37;;;;;;;0.60;0.30;;;8.10;1.00;;;;;;5109518;28;20420;-77
2024/01/05 08:27:09;;;;;;;1.15;0.30;;;8.00;1.00;;;;;;5111393;27;20515;-77
2024/01/05 08:29:37;;;;;;;0.68;0.20;;;8.10;99.90;;;;;;5124063;27;20432;-77
2024/01/05 08:32:05;;;;;;;0.80;0.38;;;8.10;1.00;;;;;;5107630;28;20415;-77
2024/01/05 08:34:32;;;;;;;0.98;0.20;;;8.20;1.00;;;;;;5104159;28;20852;-77
2024/01/05 08:36:59;;;;;;;0.50;0.20;;;8.30;1.00;;;;;;5114851;28;20440;-77
2024/01/05 08:39:26;;;;;;;1.40;0.28;;;8.30;99.90;;;;;;5116147;28;20683;-77
2024/01/05 08:41:55;;;;;;;0.85;0.30;;;8.30;1.00;;;;;;5108354;28;20432;-77
2024/01/05 08:44:25;;;;;;;1.80;0.30;;;8.40;99.90;;;;;;5117622;27;20422;-77
2024/01/05 08:46:53;;;;;;;0.70;0.30;;;8.30;99.90;;;;;;5101971;28;20922;-77
2024/01/05 08:49:20;;;;;;;0.90;0.30;;;8.40;90.30;;;;;;5111923;27;20425;-77
2024/01/05 08:51:49;;;;;;;0.50;0.20;;;8.40;1.00;;;;;;5095431;28;20421;-77
2024/01/05 08:54:16;;;;;;;0.80;0.30;;;8.30;33.30;;;;;;5134203;27;20842;-77
2024/01/05 08:56:44;;;;;;;1.00;0.30;;;8.30;1.00;;;;;;5134518;27;20462;-78
2024/01/05 08:59:13;;;;;;;0.40;0.20;;;8.30;25.60;;;;;;5116125;27;20733;-78
2024/01/05 09:01:40;;;;;;;3.83;1.60;;;8.30;99.90;;;;;;5114734;28;20719;-79
2024/01/05 09:04:10;;;;;;;0.80;0.35;;;8.40;1.00;;;;;;5114347;28;20813;-80
2024/01/05 09:06:40;;;;;;;0.50;0.30;;;8.40;1.00;;;;;;5115013;28;20451;-80
2024/01/05 09:09:10;;;;;;;1.40;0.20;;;8.30;99.90;;;;;;5114279;28;20709;-80
2024/01/05 09:11:43;;;;;;;1.85;0.30;;;8.30;99.90;;;;;;5106867;28;20414;-80
2024/01/05 09:14:12;;;;;;;0.70;0.30;;;8.20;1.00;;;;;;5102153;28;20416;-80
2024/01/05 09:16:39;;;;;;;1.83;0.40;;;8.20;1.00;;;;;;5098735;28;20460;-80
2024/01/05 09:19:10;;;;;;;0.75;0.30;;;8.30;99.90;;;;;;5095046;28;20418;-80
2024/01/05 09:21:37;;;;;;;1.90;0.30;;;8.30;99.90;;;;;;5094720;28;20441;-80
2024/01/05 09:24:05;;;;;;;0.60;0.30;;;8.20;1.00;;;;;;5107231;27;20492;-80
2024/01/05 09:26:33;;;;;;;0.60;0.20;;;8.20;99.90;;;;;;5113500;28;20448;-80
2024/01/05 09:29:00;;;;;;;3.75;0.40;;;8.20;1.00;;;;;;5112037;28;20443;-80
2024/01/05 09:31:29;;;;;;;1.00;0.30;;;8.20;1.00;;;;;;5114448;28;20431;-80
2024/01/05 09:34:04;;;;;;;1.00;0.30;;;8.10;1.00;;;;;;5115881;27;20469;-79
2024/01/05 09:36:31;;;;;;;0.88;0.30;;;8.20;99.90;;;;;;5097728;28;20447;-79
2024/01/05 09:38:58;;;;;;;0.60;0.30;;;8.30;99.90;;;;;;5109746;28;20424;-79
2024/01/05 09:41:25;;;;;;;0.50;0.20;;;8.30;99.90;;;;;;5116001;28;20810;-79
2024/01/05 09:43:54;;;;;;;1.40;0.30;;;8.30;99.90;;;;;;5099326;28;20520;-79
2024/01/05 09:46:24;;;;;;;0.60;0.30;;;8.40;99.90;;;;;;5115152;28;20787;-79
2024/01/05 09:48:53;;;;;;;0.80;0.30;;;8.40;1.00;;;;;;5114776;28;20424;-79
2024/01/05 09:51:20;;;;;;;0.75;0.30;;;8.40;99.90;;;;;;5098817;28;20431;-78
2024/01/05 09:53:47;;;;;;;1.30;0.40;;;8.50;99.90;;;;;;5114497;28;20436;-78
2024/01/05 09:56:17;;;;;;;1.67;0.30;;;8.50;99.90;;;;;;5128008;27;20432;-79
2024/01/05 09:58:46;;;;;;;0.60;0.30;;;8.60;1.00;;;;;;5135185;27;20421;-78
2024/01/05 10:01:22;;;;;;;3.10;0.90;;;8.60;1.00;;;;;;5134574;27;20513;-78
2024/01/05 10:03:54;;;;;;;1.23;0.50;;;8.60;99.90;;;;;;5110418;28;20835;-78
2024/01/05 10:06:25;;;;;;;1.00;0.40;;;8.60;99.90;;;;;;5113734;28;20424;-78
2024/01/05 10:08:55;;;;;;;0.95;0.30;;;8.70;99.90;;;;;;5103271;28;20444;-78
2024/01/05 10:11:30;;;;;;;0.57;0.30;;;8.60;99.90;;;;;;5094196;28;20531;-79
2024/01/05 10:14:04;;;;;;;1.55;0.40;;;8.70;1.00;;;;;;5104852;27;20426;-79
2024/01/05 10:16:37;;;;;;;1.83;0.40;;;8.80;1.00;;;;;;5106701;28;20539;-79
2024/01/05 10:19:12;;;;;;;1.25;0.40;;;8.90;1.00;;;;;;5096663;28;20509;-79
2024/01/05 10:21:41;;;;;;;1.88;0.40;;;9.00;99.90;;;;;;5129358;27;20430;-80
2024/01/05 10:24:22;;;;;;;0.70;0.30;;;8.90;1.00;;;;;;5098935;28;20437;-79
2024/01/05 10:27:04;;;;;;;1.38;0.30;;;9.00;97.40;;;;;;5094378;28;20429;-79
2024/01/05 10:29:35;;;;;;;0.70;0.40;;;9.00;1.00;;;;;;5096533;28;20469;-79
2024/01/05 10:32:16;;;;;;;0.60;0.30;;;9.10;99.90;;;;;;5094659;28;20930;-78
2024/01/05 10:34:44;;;;;;;0.80;0.40;;;9.00;1.00;;;;;;5100300;28;20707;-80
2024/01/05 10:37:14;;;;;;;1.20;0.40;;;9.00;1.00;;;;;;5101627;28;20446;-80
2024/01/05 10:39:46;;;;;;;0.70;0.40;;;9.10;99.90;;;;;;5091978;28;20475;-79
2024/01/05 10:42:23;;;;;;;1.00;0.30;;;9.10;57.70;;;;;;5099897;28;20869;-79
2024/01/05 10:44:56;;;;;;;1.00;0.50;;;9.20;99.90;;;;;;5098197;27;20444;-79
2024/01/05 10:47:25;;;;;;;0.95;0.40;;;9.30;1.00;;;;;;5099381;28;20738;-79
2024/01/05 10:49:55;;;;;;;1.52;0.40;;;9.30;1.00;;;;;;5101489;28;20546;-78
2024/01/05 10:52:30;;;;;;;0.70;0.40;;;9.40;99.90;;;;;;5100267;28;20432;-79
2024/01/05 10:55:02;;;;;;;0.88;0.30;;;9.50;1.00;;;;;;5114239;28;20428;-79
2024/01/05 10:57:37;;;;;;;0.50;0.30;;;9.60;94.00;;;;;;5096711;28;20421;-79
2024/01/05 11:00:06;;;;;;;0.60;0.30;;;9.70;26.10;;;;;;5104340;28;20461;-80
2024/01/05 11:02:41;;;;;;;1.40;0.47;;;9.80;1.00;;;;;;5095290;28;20605;-78
2024/01/05 11:05:13;;;;;;;1.10;0.40;;;9.90;1.00;;;;;;5109656;28;20455;-79
2024/01/05 11:07:44;;;;;;;1.70;0.50;;;10.00;1.00;;;;;;5103696;28;20468;-78
2024/01/05 11:10:28;;;;;;;1.15;0.40;;;10.00;1.00;;;;;;5106447;27;20435;-78
2024/01/05 11:13:25;;;;;;;0.70;0.37;;;9.90;1.00;;;;;;5099901;28;20434;-79
2024/01/05 11:16:28;;;;;;;0.80;0.30;;;9.90;1.00;;;;;;5095416;28;20532;-77
2024/01/05 11:19:31;;;;;;;1.25;0.40;;;10.00;1.00;;;;;;5115944;28;20700;-77
2024/01/05 11:22:05;;;;;;;0.70;0.30;;;10.00;75.30;;;;;;5097607;28;20815;-77
2024/01/05 11:24:37;;;;;;;3.95;0.88;;;10.00;1.00;;;;;;5104462;28;20433;-76
2024/01/05 11:27:30;;;;;;;2.00;0.60;;;10.00;1.00;;;;;;5105704;28;20444;-77
2024/01/05 11:29:58;;;;;;;2.10;0.50;;;9.90;56.60;;;;;;5107873;28;20524;-76
2024/01/05 11:32:39;;;;;;;1.20;0.50;;;9.90;1.00;;;;;;5104745;27;20511;-77
2024/01/05 11:35:43;;;;;;;1.13;0.40;;;9.90;99.90;;;;;;5111547;28;20902;-77
2024/01/05 11:38:27;;;;;;;1.53;0.40;;;10.00;1.00;;;;;;5113974;28;20574;-75
2024/01/05 11:40:56;;;;;;;1.23;0.50;;;10.00;99.90;;;;;;5113076;28;20415;-77
2024/01/05 11:43:35;;;;;;;1.40;0.40;;;10.00;99.90;;;;;;5095687;27;20456;-76
2024/01/05 11:46:06;;;;;;;2.05;0.40;;;10.00;1.00;;;;;;5105856;27;20465;-76
2024/01/05 11:48:50;;;;;;;1.40;0.30;;;10.00;1.00;;;;;;5103438;28;20467;-77
2024/01/05 11:51:19;;;;;;;0.80;0.40;;;10.00;1.00;;;;;;5114654;28;20424;-77
2024/01/05 11:53:52;;;;;;;0.70;0.30;;;10.10;99.90;;;;;;5097871;28;20434;-76
2024/01/05 11:56:21;;;;;;;0.50;0.30;;;10.10;1.00;;;;;;5102295;28;20534;-75
2024/01/05 11:58:49;;;;;;;0.80;0.40;;;10.00;1.00;;;;;;5098793;28;20921;-75
2024/01/05 12:01:17;;;;;;;0.80;0.40;;;10.00;99.90;;;;;;5111193;28;20438;-76
2024/01/05 12:03:45;;;;;;;0.60;0.30;;;10.00;1.00;;;;;;5104058;27;20927;-75
2024/01/05 12:06:14;;;;;;;0.80;0.40;;;10.00;1.00;;;;;;5115157;27;20446;-76
2024/01/05 12:08:43;;;;;;;1.27;0.40;;;9.90;99.10;;;;;;5108825;27;20436;-77
2024/01/05 12:11:15;;;;;;;1.00;0.40;;;10.00;1.00;;;;;;5104434;27;20500;-77
2024/01/05 12:13:44;;;;;;;1.33;0.30;;;10.10;1.00;;;;;;5123542;27;20488;-76
2024/01/05 12:16:11;;;;;;;3.10;1.02;;;10.20;1.00;;;;;;5114166;27;20529;-77
2024/01/05 12:18:50;;;;;;;9.73;4.90;;;10.20;99.90;;;;;;5123936;27;20427;-77
2024/01/05 12:21:21;;;;;;;2.60;0.50;;;10.20;1.00;;;;;;5117101;27;20432;-76
2024/01/05 12:23:54;;;;;;;22.33;11.40;;;10.10;1.00;;;;;;5105322;27;20751;-75
2024/01/05 12:26:22;;;;;;;3.90;0.50;;;10.20;1.00;;;;;;5112577;27;20436;-76
2024/01/05 12:28:51;;;;;;;0.70;0.40;;;10.20;99.90;;;;;;5111258;27;20498;-75
2024/01/05 12:31:21;;;;;;;2.97;0.40;;;10.10;99.90;;;;;;5124479;27;20425;-75
2024/01/05 12:33:50;;;;;;;1.35;0.40;;;10.10;99.90;;;;;;5113259;27;20524;-75
2024/01/05 12:36:28;;;;;;;1.48;0.50;;;10.20;1.00;;;;;;5119086;27;20785;-75
2024/01/05 12:38:55;;;;;;;1.80;0.50;;;10.20;99.90;;;;;;5118677;27;20988;-75
2024/01/05 12:41:23;;;;;;;1.52;0.40;;;10.20;99.90;;;;;;5110293;27;20753;-75
2024/01/05 12:43:52;;;;;;;0.75;0.40;;;10.20;1.00;;;;;;5113860;27;20428;-77
2024/01/05 12:46:48;;;;;;;0.60;0.40;;;10.30;99.90;;;;;;5110185;27;20419;-77
2024/01/05 12:49:22;;;;;;;1.80;0.40;;;10.30;1.00;;;;;;5084769;28;20480;-75
2024/01/05 12:51:52;;;;;;;1.10;0.40;;;10.30;1.00;;;;;;5093555;28;20795;-78
2024/01/05 12:54:20;;;;;;;0.57;0.30;;;10.30;99.90;;;;;;5097900;28;20436;-76
2024/01/05 12:56:50;;;;;;;1.60;0.40;;;10.20;99.90;;;;;;5098367;28;20447;-76
2024/01/05 12:59:23;;;;;;;0.82;0.40;;;10.20;1.00;;;;;;5105478;27;20438;-76
2024/01/05 13:01:59;;;;;;;1.50;0.40;;;10.20;1.00;;;;;;5104634;28;20436;-76
2024/01/05 13:04:30;;;;;;;0.90;0.40;;;10.20;1.00;;;;;;5102138;27;20526;-76
2024/01/05 13:06:57;;;;;;;1.10;0.40;;;10.30;1.00;;;;;;5111524;28;20430;-76
2024/01/05 13:09:24;;;;;;;1.70;0.40;;;10.30;99.90;;;;;;5115943;27;20416;-76
2024/01/05 13:11:56;;;;;;;0.80;0.60;;;10.30;99.90;;;;;;5115423;28;20424;-76
2024/01/05 13:14:25;;;;;;;1.60;0.40;;;10.30;1.00;;;;;;5115380;28;20694;-76